Latest Weather Observations for Portland Airport

IDV60801

Issued at 1:05 am EST Tuesday 22 April 2014 (issued every 30 minutes, with the page automatically refreshed every 10 minutes)

About weather observations | Map of weather stations | Latest weather observations for VIC | Other Formats
Station Details ID: 090171 Name: CASHMORE AIRPORT Lat: -38.31 Lon: 141.47 Height: 80.9 m
Data from the previous 72 hours. | See also: Recent months at Portland Airport
Date/Time
EST
Temp
°C
App
Temp
°C
Dew
Point
Rel
Hum
%
Delta-T
°C
Wind Press
QNH
hPa
Press
MSL
hPa
Rain
since 9 am
mm
Dir
 
Spd
km/h
Gust
km/h
Spd
kts
Gust
kts
22/01:00am 16.0 14.6 14.5 91 0.9 WNW 15 26 8 14 1010.7 - 4.8
22/12:53am 16.1 13.9 14.5 90 0.9 WNW 19 26 10 14 1011.0 - 4.6
22/12:30am 16.2 13.7 14.0 87 1.3 WNW 20 28 11 15 1011.1 - 4.2
22/12:00am 15.9 13.4 13.6 86 1.3 WNW 19 22 10 12 1010.8 1010.8 4.0
 
Date/Time
EST
Temp
°C
App
Temp
°C
Dew
Point
Rel
Hum
%
Delta-T
°C
Wind Press
QNH
hPa
Press
MSL
hPa
Rain
since 9 am
mm
Dir
 
Spd
km/h
Gust
km/h
Spd
kts
Gust
kts
21/11:30pm 15.8 13.6 13.3 85 1.4 N 17 22 9 12 1010.0 - 4.0
21/11:16pm 16.6 13.1 13.5 82 1.7 NNW 24 32 13 17 1010.2 - 4.0
21/11:00pm 17.1 12.3 13.0 77 2.3 WNW 30 50 16 27 1010.6 - 3.6
21/10:55pm 17.8 12.6 12.9 73 2.8 NW 32 50 17 27 1010.8 - 3.4
21/10:30pm 18.3 12.8 12.5 69 3.2 NW 33 48 18 26 1010.3 - 3.0
21/10:12pm 17.8 13.5 13.3 75 2.5 NNW 28 48 15 26 1009.7 - 3.0
21/10:00pm 17.3 13.4 13.2 77 2.3 N 26 35 14 19 1009.5 - 3.0
21/09:30pm 16.9 12.7 13.6 81 1.9 N 28 43 15 23 1009.7 - 3.0
21/09:00pm 17.0 12.6 14.1 83 1.7 N 30 44 16 24 1010.4 1010.4 2.8
21/08:30pm 16.6 12.2 14.1 85 1.4 N 30 46 16 25 1010.0 - 2.8
21/08:27pm 16.6 12.6 14.1 85 1.4 N 28 46 15 25 1009.9 - 2.8
21/08:00pm 17.0 12.9 13.9 82 1.8 N 28 43 15 23 1010.6 - 2.0
21/07:30pm 17.5 14.0 13.4 77 2.3 NNW 24 33 13 18 1010.8 - 1.2
21/07:00pm 17.9 13.5 13.0 73 2.8 NW 28 41 15 22 1011.0 - 1.0
21/06:30pm 20.1 15.1 11.1 56 4.9 NW 28 37 15 20 1010.4 - 0.6
21/06:09pm 20.6 15.4 10.4 52 5.6 NW 28 46 15 25 1010.1 - 0.6
21/06:00pm 19.9 16.9 10.6 55 5.1 NNW 17 22 9 12 1010.1 1010.1 0.6
21/05:30pm 19.9 16.9 10.6 55 5.1 NNW 17 22 9 12 1009.1 - 0.6
21/05:00pm 19.4 16.6 11.4 60 4.4 N 17 22 9 12 1008.8 - 0.6
21/04:30pm 20.1 15.9 11.1 56 4.9 N 24 33 13 18 1008.9 - 0.6
21/04:00pm 20.3 16.5 11.2 56 5.0 N 22 33 12 18 1008.9 - 0.6
21/03:30pm 20.1 16.0 11.3 57 4.9 N 24 39 13 21 1009.0 - 0.6
21/03:00pm 19.8 14.8 10.8 56 4.9 N 28 39 15 21 1009.1 1009.1 0.6
21/02:30pm 19.0 14.3 10.6 58 4.5 N 26 41 14 22 1008.8 - 0.6
21/02:00pm 18.6 14.7 10.7 60 4.3 N 22 32 12 17 1009.1 - 0.6
21/01:30pm 18.3 14.1 11.1 63 3.9 N 24 32 13 17 1010.1 - 0.6
21/01:00pm 18.0 13.5 11.3 65 3.7 N 26 37 14 20 1010.7 - 0.6
21/12:30pm 16.9 13.2 11.4 70 3.0 N 22 32 12 17 1011.0 - 0.6
21/12:00pm 16.2 11.9 10.9 71 2.8 N 24 35 13 19 1012.0 1012.0 0.6
21/11:30am 15.7 12.8 12.3 80 1.9 N 19 30 10 16 1013.0 - 0.6
21/11:00am 14.7 13.8 12.6 87 1.2 N 9 13 5 7 1013.6 - 0.6
21/10:30am 15.0 13.0 12.7 86 1.3 N 15 22 8 12 1014.5 - 0.0
21/10:00am 15.3 13.2 14.8 97 0.3 N 19 28 10 15 1014.0 - 0.0
21/09:30am 14.0 12.4 13.8 99 0.1 NNE 15 20 8 11 1014.3 - 0.0
21/09:00am 13.5 12.1 13.3 99 0.1 NNE 13 19 7 10 1015.1 1015.1 2.0
21/08:30am 13.2 11.3 13.0 99 0.1 NNE 15 19 8 10 1015.2 - 2.0
21/08:00am 13.0 11.8 12.8 99 0.1 NNE 11 15 6 8 1015.4 - 2.0
21/07:30am 12.9 12.4 12.7 99 0.1 N 7 11 4 6 1015.6 - 2.0
21/07:00am 12.7 11.4 12.5 99 0.1 N 11 15 6 8 1015.9 - 2.0
21/06:30am 12.7 11.8 12.5 99 0.1 N 9 13 5 7 1015.9 - 2.0
21/06:00am 12.8 11.9 12.6 99 0.1 N 9 13 5 7 1016.2 1016.2 2.0
21/05:30am 12.8 12.3 12.6 99 0.1 N 7 11 4 6 1015.6 - 2.0
21/05:00am 12.7 11.8 12.5 99 0.1 NNW 9 11 5 6 1016.1 - 2.0
21/04:30am 12.7 11.8 12.5 99 0.1 N 9 13 5 7 1015.7 - 2.0
21/04:19am 12.7 11.4 12.5 99 0.1 NNW 11 15 6 8 1015.7 - 2.0
21/04:00am 12.8 11.9 12.6 99 0.1 NNW 9 13 5 7 1015.8 - 2.0
21/03:30am 12.7 11.8 12.5 99 0.1 N 9 13 5 7 1015.5 - 2.0
21/03:00am 12.6 11.6 12.4 99 0.1 N 9 13 5 7 1015.6 1015.6 2.0
21/02:30am 12.3 10.9 12.1 99 0.1 N 11 15 6 8 1015.7 - 2.0
21/02:09am 12.1 11.4 11.9 99 0.1 NNW 7 11 4 6 1016.0 - 2.0
21/02:00am 12.1 11.0 11.9 99 0.1 NNW 9 11 5 6 1016.1 - 2.0
21/01:30am 12.4 13.1 12.2 99 0.1 CALM 0 7 0 4 1016.4 - 2.0
21/01:09am 12.9 12.4 12.7 99 0.1 NNW 7 11 4 6 1016.5 - 2.0
21/01:00am 13.3 12.9 13.1 99 0.1 WNW 7 11 4 6 1016.6 - 2.0
21/12:42am 13.4 12.7 13.2 99 0.1 NW 9 13 5 7 1016.5 - 1.8
21/12:30am 13.6 12.6 13.4 99 0.1 NW 11 15 6 8 1016.6 - 1.6
21/12:12am 13.5 12.8 13.3 99 0.1 WNW 9 13 5 7 1016.4 - 1.6
21/12:00am 13.5 12.8 13.3 99 0.1 NW 9 13 5 7 1016.4 1016.4 1.6
 
Date/Time
EST
Temp
°C
App
Temp
°C
Dew
Point
Rel
Hum
%
Delta-T
°C
Wind Press
QNH
hPa
Press
MSL
hPa
Rain
since 9 am
mm
Dir
 
Spd
km/h
Gust
km/h
Spd
kts
Gust
kts
20/11:31pm 13.0 12.5 12.8 99 0.1 NW 7 9 4 5 1016.6 - 1.4
20/11:30pm 13.0 12.5 12.8 99 0.1 NW 7 9 4 5 1016.5 - 1.4
20/11:23pm 12.8 12.5 12.6 99 0.1 NW 6 7 3 4 1016.6 - 1.4
20/11:00pm 12.8 11.9 12.6 99 0.1 NW 9 11 5 6 1016.8 - 1.4
20/10:44pm 13.1 12.3 12.8 98 0.2 NW 9 11 5 6 1016.8 - 1.4
20/10:30pm 13.6 13.2 13.1 97 0.3 WNW 7 9 4 5 1016.9 - 1.4
20/10:08pm 14.1 13.2 13.6 97 0.3 W 11 13 6 7 1017.0 - 1.4
20/10:00pm 14.3 13.8 13.8 97 0.3 W 9 15 5 8 1017.0 - 1.4
20/09:40pm 14.3 13.0 13.7 96 0.3 W 13 19 7 10 1016.9 - 1.2
20/09:30pm 14.3 12.6 13.5 95 0.4 NW 15 20 8 11 1016.8 - 1.0
20/09:00pm 14.2 12.7 13.2 94 0.6 NNW 13 19 7 10 1016.6 1016.6 1.0
20/08:30pm 13.8 11.5 13.0 95 0.4 NW 17 24 9 13 1016.6 - 1.0
20/08:08pm 13.7 11.0 12.8 94 0.5 WNW 19 26 10 14 1016.5 - 1.0
20/08:00pm 14.0 11.2 13.1 94 0.5 WNW 20 30 11 16 1016.5 - 1.0
20/07:46pm 14.4 11.2 13.1 92 0.7 WNW 22 35 12 19 1016.4 - 1.0
20/07:30pm 14.7 11.9 13.2 91 0.8 WNW 20 30 11 16 1016.4 - 1.0
20/07:00pm 15.3 12.5 13.1 87 1.2 WNW 20 28 11 15 1016.1 - 1.0
20/06:30pm 15.4 12.8 13.2 87 1.2 WNW 19 22 10 12 1015.8 - 1.0
20/06:00pm 15.7 14.0 13.5 87 1.2 WNW 15 22 8 12 1015.7 1015.7 1.0
20/05:30pm 16.0 15.1 13.7 86 1.3 WNW 11 15 6 8 1015.5 - 1.0
20/05:00pm 16.1 14.6 13.2 83 1.6 WNW 13 20 7 11 1015.3 - 1.0
20/04:30pm 16.8 14.6 13.3 80 2.0 WNW 17 22 9 12 1015.3 - 1.0
20/04:00pm 16.9 14.2 12.8 77 2.3 WNW 19 33 10 18 1015.2 - 1.0
20/03:30pm 17.1 14.2 12.8 76 2.4 WNW 20 28 11 15 1015.2 - 1.0
20/03:00pm 17.7 14.5 13.2 75 2.5 WNW 22 30 12 16 1015.2 1015.2 1.0
20/02:30pm 17.2 13.8 13.7 80 2.0 WNW 24 33 13 18 1015.4 - 1.0
20/02:00pm 15.3 11.8 13.5 89 1.0 NW 24 33 13 18 1015.4 - 1.0
20/01:37pm 14.9 11.9 13.8 93 0.6 NW 22 33 12 18 1015.6 - 1.0
20/01:30pm 14.5 11.3 13.2 92 0.7 WNW 22 32 12 17 1015.6 - 1.0
20/01:07pm 15.2 9.9 11.4 78 2.0 WNW 30 46 16 25 1015.8 - 0.0
20/01:06pm 15.4 10.5 11.4 77 2.2 WNW 28 46 15 25 1015.8 - 0.0
20/01:00pm 16.4 13.1 11.6 73 2.6 WNW 20 32 11 17 1015.7 - 0.0
20/12:30pm 16.6 12.8 11.3 71 2.9 NW 22 33 12 18 1016.0 - 0.0
20/12:00pm 16.9 11.9 11.0 68 3.2 NW 28 37 15 20 1016.1 1016.1 0.0
20/11:30am 16.8 12.5 10.9 68 3.2 NW 24 35 13 19 1016.4 - 0.0
20/11:00am 16.3 12.8 10.8 70 2.9 NNW 20 35 11 19 1016.5 - 0.0
20/10:30am 15.0 11.1 9.4 69 2.9 NNW 20 30 11 16 1016.7 - 0.0
20/10:00am 14.6 10.0 8.3 66 3.2 NNW 22 35 12 19 1016.8 - 0.0
20/09:30am 14.0 9.8 8.4 69 2.8 NNW 20 28 11 15 1016.9 - 0.0
20/09:00am 13.4 9.2 8.3 71 2.5 NNW 20 32 11 17 1016.8 1016.8 0.6
20/08:30am 12.7 8.7 8.2 74 2.2 NNW 19 28 10 15 1016.6 - 0.6
20/08:00am 11.8 8.1 7.9 77 1.9 NNW 17 24 9 13 1016.6 - 0.6
20/07:30am 11.1 7.3 7.6 79 1.7 NNW 17 24 9 13 1016.4 - 0.6
20/07:00am 10.5 7.2 7.9 84 1.3 NNW 15 24 8 13 1016.3 - 0.6
20/06:30am 9.7 7.4 7.5 86 1.1 NNW 9 13 5 7 1016.2 - 0.6
20/06:00am 9.5 6.8 7.3 86 1.0 NNW 11 15 6 8 1016.1 1016.1 0.6
20/05:30am 10.0 7.8 7.9 87 1.0 N 9 15 5 8 1016.0 - 0.6
20/05:00am 10.0 7.5 8.1 88 0.9 N 11 15 6 8 1015.9 - 0.6
20/04:30am 10.1 8.0 8.2 88 0.9 N 9 13 5 7 1015.8 - 0.6
20/04:00am 10.1 7.7 8.7 91 0.7 NNW 11 17 6 9 1015.8 - 0.6
20/03:30am 9.7 7.3 8.6 93 0.5 N 11 17 6 9 1016.0 - 0.6
20/03:00am 9.7 7.3 8.8 94 0.4 N 11 15 6 8 1016.1 1016.1 0.6
20/02:30am 9.4 7.0 8.6 95 0.4 N 11 13 6 7 1016.4 - 0.6
20/02:00am 8.7 6.5 7.9 95 0.4 N 9 11 5 6 1016.7 - 0.6
20/01:30am 8.6 6.0 7.7 94 0.4 N 11 11 6 6 1016.7 - 0.6
20/01:00am 9.8 7.9 8.9 94 0.4 N 9 11 5 6 1016.8 - 0.6
20/12:30am 10.0 7.8 9.2 95 0.4 N 11 13 6 7 1017.1 - 0.6
20/12:00am 10.4 8.3 9.8 96 0.3 W 11 15 6 8 1017.5 1017.5 0.6
 
Date/Time
EST
Temp
°C
App
Temp
°C
Dew
Point
Rel
Hum
%
Delta-T
°C
Wind Press
QNH
hPa
Press
MSL
hPa
Rain
since 9 am
mm
Dir
 
Spd
km/h
Gust
km/h
Spd
kts
Gust
kts
19/11:30pm 10.0 8.6 9.4 96 0.3 NW 7 11 4 6 1017.6 - 0.6
19/11:00pm 9.8 8.3 9.0 95 0.4 N 7 9 4 5 1017.9 - 0.6
19/10:30pm 10.1 10.0 9.3 95 0.4 CALM 0 9 0 5 1018.2 - 0.6
19/10:00pm 10.3 9.1 9.5 95 0.4 NE 6 7 3 4 1018.2 - 0.6
19/09:38pm 10.2 8.8 9.4 95 0.4 W 7 9 4 5 1018.6 - 0.6
19/09:30pm 10.2 8.4 9.4 95 0.4 W 9 13 5 7 1018.6 - 0.6
19/09:25pm 10.1 7.9 9.3 95 0.4 W 11 17 6 9 1018.7 - 0.6
19/09:00pm 9.9 8.4 9.0 94 0.4 N 7 9 4 5 1018.5 1018.5 0.4
19/08:30pm 10.3 8.8 9.2 93 0.5 N 7 7 4 4 1018.6 - 0.4
19/08:00pm 10.5 9.0 9.3 92 0.6 N 7 9 4 5 1018.7 - 0.4
19/07:30pm 10.5 8.6 9.1 91 0.7 N 9 11 5 6 1019.0 - 0.4
19/07:24pm 10.6 8.7 9.2 91 0.7 N 9 15 5 8 1019.0 - 0.4
19/07:06pm 11.0 8.4 9.3 89 0.9 WNW 13 19 7 10 1019.1 - 0.4
19/07:00pm 10.4 8.9 8.3 87 1.0 WNW 6 11 3 6 1019.0 - 0.0
19/06:30pm 11.0 9.5 8.6 85 1.2 WNW 6 7 3 4 1018.8 - 0.0
19/06:00pm 11.5 10.2 9.1 85 1.2 WNW 6 7 3 4 1018.9 1018.9 0.0
19/05:30pm 11.6 10.1 8.6 82 1.5 WNW 6 7 3 4 1019.0 - 0.0
19/05:00pm 12.2 9.7 8.1 76 2.0 WNW 11 13 6 7 1019.0 - 0.0
19/04:30pm 11.5 8.3 8.5 82 1.5 WNW 15 20 8 11 1019.3 - 0.0
19/04:00pm 14.0 11.3 9.0 72 2.5 W 13 19 7 10 1019.2 - 0.0
19/03:30pm 14.1 11.0 8.7 70 2.7 WSW 15 22 8 12 1019.3 - 0.0
19/03:00pm 13.3 11.5 9.5 78 1.9 WSW 9 15 5 8 1019.4 1019.4 0.0
19/02:30pm 11.9 7.5 8.9 82 1.5 W 22 32 12 17 1019.7 - 0.0
19/02:00pm 15.1 13.0 9.7 70 2.8 W 11 17 6 9 1019.8 - 0.0
19/01:30pm 13.4 11.3 8.3 71 2.5 NW 9 15 5 8 1020.2 - 0.0
19/01:00pm 13.2 11.3 8.9 75 2.2 W 9 11 5 6 1020.6 - 0.0
19/12:30pm 12.9 10.7 9.5 80 1.7 WSW 11 17 6 9 1021.1 - 0.0
19/12:00pm 13.2 9.2 8.9 75 2.2 W 20 28 11 15 1021.4 1021.4 0.0
19/11:30am 13.2 11.7 9.3 77 2.0 SSW 7 11 4 6 1021.6 - 0.0
19/11:00am 12.4 10.2 9.4 82 1.5 SSW 11 17 6 9 1021.8 - 0.0
19/10:30am 12.6 10.1 9.6 82 1.5 NW 13 19 7 10 1021.9 - 0.0
19/10:00am 12.4 10.4 8.7 78 1.9 SSW 9 13 5 7 1022.1 - 0.0
19/09:30am 13.3 11.7 8.8 74 2.3 SSW 7 9 4 5 1022.2 - 0.0
19/09:00am 12.8 11.3 8.3 74 2.2 WSW 6 9 3 5 1022.1 1022.1 0.2
19/08:30am 12.4 10.8 8.7 78 1.9 WSW 7 9 4 5 1021.9 - 0.2
19/08:00am 10.8 9.1 8.4 85 1.2 WSW 7 9 4 5 1021.8 - 0.2
19/07:30am 9.4 7.7 6.1 80 1.5 SSW 4 7 2 4 1021.4 - 0.2
19/07:00am 9.5 7.5 7.3 86 1.0 SW 7 9 4 5 1021.3 - 0.2
19/06:30am 10.3 7.5 8.4 88 0.9 SSW 13 19 7 10 1021.1 - 0.2
19/06:00am 9.0 7.5 7.0 87 0.9 WSW 4 9 2 5 1021.1 1021.1 0.2
19/05:30am 9.8 9.3 7.7 87 1.0 CALM 0 0 0 0 1021.0 - 0.2
19/05:00am 10.0 9.1 7.8 86 1.1 SW 2 7 1 4 1021.0 - 0.2
19/04:30am 9.7 7.0 7.3 85 1.1 W 11 15 6 8 1020.9 - 0.2
19/04:00am 10.7 7.0 8.1 84 1.3 SW 17 26 9 14 1021.0 - 0.2
19/03:30am 11.1 8.9 7.8 80 1.6 SSW 9 13 5 7 1021.0 - 0.2
19/03:00am 11.4 8.7 7.3 76 2.0 SSW 11 15 6 8 1021.1 1021.1 0.2
19/02:30am 10.9 8.4 8.3 84 1.3 SW 11 17 6 9 1021.3 - 0.2
19/02:00am 10.8 7.9 8.2 84 1.3 WSW 13 15 7 8 1021.4 - 0.2
19/01:32am 11.0 7.6 7.7 80 1.6 WSW 15 22 8 12 1021.6 - 0.2
19/01:30am 11.0 7.2 7.7 80 1.6 WSW 17 22 9 12 1021.6 - 0.2
19/01:16am 11.6 9.0 7.7 77 1.9 WSW 11 17 6 9 1021.6 - 0.2

Other Formats:

Comma delimited format used in spreadsheet applications
http://www.bom.gov.au/fwo/IDV60801/IDV60801.94828.axf

JavaScript Object Notation format (JSON) in row-major order
http://www.bom.gov.au/fwo/IDV60801/IDV60801.94828.json